sensor_id;sensor_type;location;lat;lon;timestamp;temperature;humidity
75931;DHT22;64609;47.052;15.462;2024-03-08T00:01:30;8.30;64.30
75931;DHT22;64609;47.052;15.462;2024-03-08T00:03:56;8.30;64.30
75931;DHT22;64609;47.052;15.462;2024-03-08T00:06:22;8.20;64.00
75931;DHT22;64609;47.052;15.462;2024-03-08T00:08:48;8.10;64.20
75931;DHT22;64609;47.052;15.462;2024-03-08T00:11:13;8.10;64.20
75931;DHT22;64609;47.052;15.462;2024-03-08T00:13:39;8.00;64.40
75931;DHT22;64609;47.052;15.462;2024-03-08T00:16:05;7.90;64.60
75931;DHT22;64609;47.052;15.462;2024-03-08T00:18:30;7.90;64.70
75931;DHT22;64609;47.052;15.462;2024-03-08T00:20:56;7.90;64.80
75931;DHT22;64609;47.052;15.462;2024-03-08T00:23:22;7.90;64.80
75931;DHT22;64609;47.052;15.462;2024-03-08T00:25:48;8.00;64.70
75931;DHT22;64609;47.052;15.462;2024-03-08T00:28:14;8.00;64.50
75931;DHT22;64609;47.052;15.462;2024-03-08T00:30:42;8.00;64.40
75931;DHT22;64609;47.052;15.462;2024-03-08T00:33:08;8.00;64.40
75931;DHT22;64609;47.052;15.462;2024-03-08T00:35:33;8.10;64.40
75931;DHT22;64609;47.052;15.462;2024-03-08T00:37:59;8.10;64.10
75931;DHT22;64609;47.052;15.462;2024-03-08T00:40:25;8.10;64.10
75931;DHT22;64609;47.052;15.462;2024-03-08T00:42:50;8.10;64.10
75931;DHT22;64609;47.052;15.462;2024-03-08T00:45:16;8.10;64.00
75931;DHT22;64609;47.052;15.462;2024-03-08T00:47:41;8.00;63.80
75931;DHT22;64609;47.052;15.462;2024-03-08T00:50:09;7.90;64.10
75931;DHT22;64609;47.052;15.462;2024-03-08T00:52:36;7.90;64.40
75931;DHT22;64609;47.052;15.462;2024-03-08T00:55:02;7.90;64.40
75931;DHT22;64609;47.052;15.462;2024-03-08T00:57:27;8.00;64.50
75931;DHT22;64609;47.052;15.462;2024-03-08T00:59:53;8.00;64.30
75931;DHT22;64609;47.052;15.462;2024-03-08T01:02:19;8.00;64.20
75931;DHT22;64609;47.052;15.462;2024-03-08T01:04:46;8.00;64.20
75931;DHT22;64609;47.052;15.462;2024-03-08T01:07:12;8.00;64.10
75931;DHT22;64609;47.052;15.462;2024-03-08T01:09:38;7.90;64.20
75931;DHT22;64609;47.052;15.462;2024-03-08T01:12:04;8.00;64.30
75931;DHT22;64609;47.052;15.462;2024-03-08T01:14:30;8.00;64.30
75931;DHT22;64609;47.052;15.462;2024-03-08T01:16:56;8.00;64.10
75931;DHT22;64609;47.052;15.462;2024-03-08T01:19:21;8.10;64.00
75931;DHT22;64609;47.052;15.462;2024-03-08T01:21:47;8.00;63.90
75931;DHT22;64609;47.052;15.462;2024-03-08T01:24:13;7.90;63.90
75931;DHT22;64609;47.052;15.462;2024-03-08T01:26:38;7.90;63.80
75931;DHT22;64609;47.052;15.462;2024-03-08T01:29:04;7.80;63.90
75931;DHT22;64609;47.052;15.462;2024-03-08T01:31:30;7.80;64.20
75931;DHT22;64609;47.052;15.462;2024-03-08T01:33:57;7.80;64.20
75931;DHT22;64609;47.052;15.462;2024-03-08T01:36:22;7.80;64.00
75931;DHT22;64609;47.052;15.462;2024-03-08T01:38:48;7.80;64.00
75931;DHT22;64609;47.052;15.462;2024-03-08T01:41:14;7.80;63.80
75931;DHT22;64609;47.052;15.462;2024-03-08T01:43:43;7.80;63.90
75931;DHT22;64609;47.052;15.462;2024-03-08T01:46:09;7.70;63.80
75931;DHT22;64609;47.052;15.462;2024-03-08T01:48:36;7.70;63.80
75931;DHT22;64609;47.052;15.462;2024-03-08T01:51:03;7.60;63.90
75931;DHT22;64609;47.052;15.462;2024-03-08T01:53:30;7.60;64.00
75931;DHT22;64609;47.052;15.462;2024-03-08T01:55:57;7.60;63.90
75931;DHT22;64609;47.052;15.462;2024-03-08T01:58:23;7.60;63.90
75931;DHT22;64609;47.052;15.462;2024-03-08T02:00:49;7.60;64.00
75931;DHT22;64609;47.052;15.462;2024-03-08T02:03:18;7.50;64.20
75931;DHT22;64609;47.052;15.462;2024-03-08T02:05:44;7.50;64.00
75931;DHT22;64609;47.052;15.462;2024-03-08T02:08:10;7.40;64.00
75931;DHT22;64609;47.052;15.462;2024-03-08T02:10:43;7.30;64.30
75931;DHT22;64609;47.052;15.462;2024-03-08T02:13:09;7.30;64.50
75931;DHT22;64609;47.052;15.462;2024-03-08T02:16:04;7.30;64.50
75931;DHT22;64609;47.052;15.462;2024-03-08T02:18:33;7.40;64.70
75931;DHT22;64609;47.052;15.462;2024-03-08T02:21:01;7.40;64.50
75931;DHT22;64609;47.052;15.462;2024-03-08T02:23:28;7.40;64.80
75931;DHT22;64609;47.052;15.462;2024-03-08T02:25:55;7.40;64.60
75931;DHT22;64609;47.052;15.462;2024-03-08T02:28:22;7.30;64.80
75931;DHT22;64609;47.052;15.462;2024-03-08T02:30:51;7.30;64.70
75931;DHT22;64609;47.052;15.462;2024-03-08T02:33:21;7.30;65.90
75931;DHT22;64609;47.052;15.462;2024-03-08T02:35:48;7.40;64.70
75931;DHT22;64609;47.052;15.462;2024-03-08T02:38:15;7.40;64.50
75931;DHT22;64609;47.052;15.462;2024-03-08T02:40:49;7.40;64.50
75931;DHT22;64609;47.052;15.462;2024-03-08T02:43:16;7.50;64.70
75931;DHT22;64609;47.052;15.462;2024-03-08T02:45:42;7.50;64.50
75931;DHT22;64609;47.052;15.462;2024-03-08T02:48:08;7.50;64.50
75931;DHT22;64609;47.052;15.462;2024-03-08T02:50:34;7.50;64.60
75931;DHT22;64609;47.052;15.462;2024-03-08T02:53:03;7.50;64.50
75931;DHT22;64609;47.052;15.462;2024-03-08T02:55:29;7.60;64.50
75931;DHT22;64609;47.052;15.462;2024-03-08T02:57:56;7.60;64.50
75931;DHT22;64609;47.052;15.462;2024-03-08T03:00:22;7.60;64.60
75931;DHT22;64609;47.052;15.462;2024-03-08T03:02:50;7.70;64.70
75931;DHT22;64609;47.052;15.462;2024-03-08T03:05:23;7.70;64.60
75931;DHT22;64609;47.052;15.462;2024-03-08T03:07:49;7.60;64.50
75931;DHT22;64609;47.052;15.462;2024-03-08T03:10:19;7.60;64.80
75931;DHT22;64609;47.052;15.462;2024-03-08T03:12:45;7.50;65.00
75931;DHT22;64609;47.052;15.462;2024-03-08T03:15:12;7.60;65.20
75931;DHT22;64609;47.052;15.462;2024-03-08T03:17:38;7.60;65.30
75931;DHT22;64609;47.052;15.462;2024-03-08T03:20:08;7.60;65.30
75931;DHT22;64609;47.052;15.462;2024-03-08T03:22:42;7.70;65.50
75931;DHT22;64609;47.052;15.462;2024-03-08T03:25:12;7.70;65.30
75931;DHT22;64609;47.052;15.462;2024-03-08T03:27:38;7.70;65.10
75931;DHT22;64609;47.052;15.462;2024-03-08T03:30:06;7.70;65.10
75931;DHT22;64609;47.052;15.462;2024-03-08T03:32:48;7.60;65.20
75931;DHT22;64609;47.052;15.462;2024-03-08T03:35:15;7.50;65.30
75931;DHT22;64609;47.052;15.462;2024-03-08T03:37:41;7.40;65.60
75931;DHT22;64609;47.052;15.462;2024-03-08T03:40:09;7.40;65.70
75931;DHT22;64609;47.052;15.462;2024-03-08T03:42:34;7.40;65.90
75931;DHT22;64609;47.052;15.462;2024-03-08T03:45:00;7.50;66.00
75931;DHT22;64609;47.052;15.462;2024-03-08T03:47:26;7.60;65.90
75931;DHT22;64609;47.052;15.462;2024-03-08T03:49:52;7.60;65.90
75931;DHT22;64609;47.052;15.462;2024-03-08T03:52:19;7.70;65.80
75931;DHT22;64609;47.052;15.462;2024-03-08T03:54:45;7.80;65.70
75931;DHT22;64609;47.052;15.462;2024-03-08T03:57:11;7.80;65.40
75931;DHT22;64609;47.052;15.462;2024-03-08T03:59:37;7.80;65.30
75931;DHT22;64609;47.052;15.462;2024-03-08T04:02:03;7.80;65.40
75931;DHT22;64609;47.052;15.462;2024-03-08T04:04:29;7.80;65.40
75931;DHT22;64609;47.052;15.462;2024-03-08T04:06:55;7.80;65.30
75931;DHT22;64609;47.052;15.462;2024-03-08T04:09:20;7.90;65.40
75931;DHT22;64609;47.052;15.462;2024-03-08T04:11:48;7.90;65.40
75931;DHT22;64609;47.052;15.462;2024-03-08T04:14:14;7.90;65.40
75931;DHT22;64609;47.052;15.462;2024-03-08T04:16:39;7.90;65.40
75931;DHT22;64609;47.052;15.462;2024-03-08T04:19:05;7.90;65.40
75931;DHT22;64609;47.052;15.462;2024-03-08T04:21:30;7.90;65.30
75931;DHT22;64609;47.052;15.462;2024-03-08T04:23:56;7.90;65.30
75931;DHT22;64609;47.052;15.462;2024-03-08T04:26:22;7.90;65.30
75931;DHT22;64609;47.052;15.462;2024-03-08T04:28:48;7.90;65.30
75931;DHT22;64609;47.052;15.462;2024-03-08T04:31:13;7.90;65.50
75931;DHT22;64609;47.052;15.462;2024-03-08T04:33:41;7.90;65.50
75931;DHT22;64609;47.052;15.462;2024-03-08T04:36:07;8.00;65.60
75931;DHT22;64609;47.052;15.462;2024-03-08T04:38:33;8.00;65.50
75931;DHT22;64609;47.052;15.462;2024-03-08T04:41:00;8.00;65.10
75931;DHT22;64609;47.052;15.462;2024-03-08T04:43:28;7.90;64.80
75931;DHT22;64609;47.052;15.462;2024-03-08T04:45:55;7.80;65.10
75931;DHT22;64609;47.052;15.462;2024-03-08T04:48:21;7.80;65.10
75931;DHT22;64609;47.052;15.462;2024-03-08T04:50:47;7.70;65.30
75931;DHT22;64609;47.052;15.462;2024-03-08T04:53:12;7.70;65.30
75931;DHT22;64609;47.052;15.462;2024-03-08T04:55:38;7.80;66.10
75931;DHT22;64609;47.052;15.462;2024-03-08T04:58:04;7.80;65.50
75931;DHT22;64609;47.052;15.462;2024-03-08T05:00:31;7.90;65.40
75931;DHT22;64609;47.052;15.462;2024-03-08T05:02:58;7.90;65.30
75931;DHT22;64609;47.052;15.462;2024-03-08T05:05:23;7.90;65.10
75931;DHT22;64609;47.052;15.462;2024-03-08T05:07:50;7.80;65.00
75931;DHT22;64609;47.052;15.462;2024-03-08T05:10:15;7.70;65.10
75931;DHT22;64609;47.052;15.462;2024-03-08T05:12:43;7.70;65.10
75931;DHT22;64609;47.052;15.462;2024-03-08T05:15:09;7.60;65.30
75931;DHT22;64609;47.052;15.462;2024-03-08T05:17:34;7.60;65.50
75931;DHT22;64609;47.052;15.462;2024-03-08T05:20:00;7.60;65.50
75931;DHT22;64609;47.052;15.462;2024-03-08T05:22:26;7.50;65.50
75931;DHT22;64609;47.052;15.462;2024-03-08T05:24:51;7.50;65.80
75931;DHT22;64609;47.052;15.462;2024-03-08T05:27:17;7.50;65.80
75931;DHT22;64609;47.052;15.462;2024-03-08T05:29:43;7.30;65.80
75931;DHT22;64609;47.052;15.462;2024-03-08T05:32:08;7.40;66.10
75931;DHT22;64609;47.052;15.462;2024-03-08T05:34:35;7.40;65.90
75931;DHT22;64609;47.052;15.462;2024-03-08T05:37:01;7.50;66.00
75931;DHT22;64609;47.052;15.462;2024-03-08T05:39:27;7.50;66.00
75931;DHT22;64609;47.052;15.462;2024-03-08T05:41:52;7.50;66.00
75931;DHT22;64609;47.052;15.462;2024-03-08T05:44:20;7.60;65.90
75931;DHT22;64609;47.052;15.462;2024-03-08T05:46:46;7.60;65.90
75931;DHT22;64609;47.052;15.462;2024-03-08T05:49:12;7.60;65.70
75931;DHT22;64609;47.052;15.462;2024-03-08T05:51:40;7.70;65.80
75931;DHT22;64609;47.052;15.462;2024-03-08T05:54:07;7.70;65.80
75931;DHT22;64609;47.052;15.462;2024-03-08T05:56:35;7.80;65.80
75931;DHT22;64609;47.052;15.462;2024-03-08T05:59:01;7.80;65.50
75931;DHT22;64609;47.052;15.462;2024-03-08T06:01:28;7.90;65.60
75931;DHT22;64609;47.052;15.462;2024-03-08T06:03:55;7.90;65.40
75931;DHT22;64609;47.052;15.462;2024-03-08T06:06:25;7.80;65.30
75931;DHT22;64609;47.052;15.462;2024-03-08T06:08:51;7.80;65.30
75931;DHT22;64609;47.052;15.462;2024-03-08T06:11:18;7.90;65.10
75931;DHT22;64609;47.052;15.462;2024-03-08T06:13:45;8.00;64.90
75931;DHT22;64609;47.052;15.462;2024-03-08T06:16:10;8.10;64.80
75931;DHT22;64609;47.052;15.462;2024-03-08T06:18:37;8.10;64.60
75931;DHT22;64609;47.052;15.462;2024-03-08T06:21:06;8.20;64.60
75931;DHT22;64609;47.052;15.462;2024-03-08T06:23:34;8.20;64.60
75931;DHT22;64609;47.052;15.462;2024-03-08T06:26:04;8.20;65.00
75931;DHT22;64609;47.052;15.462;2024-03-08T06:28:30;8.20;64.70
75931;DHT22;64609;47.052;15.462;2024-03-08T06:30:58;8.20;64.60
75931;DHT22;64609;47.052;15.462;2024-03-08T06:33:24;8.20;64.60
75931;DHT22;64609;47.052;15.462;2024-03-08T06:35:52;8.30;64.50
75931;DHT22;64609;47.052;15.462;2024-03-08T06:38:17;8.40;64.40
75931;DHT22;64609;47.052;15.462;2024-03-08T06:40:44;8.40;64.40
75931;DHT22;64609;47.052;15.462;2024-03-08T06:43:09;8.50;64.30
75931;DHT22;64609;47.052;15.462;2024-03-08T06:45:37;8.60;64.10
75931;DHT22;64609;47.052;15.462;2024-03-08T06:48:03;8.60;63.50
75931;DHT22;64609;47.052;15.462;2024-03-08T06:50:29;8.60;63.40
75931;DHT22;64609;47.052;15.462;2024-03-08T06:52:55;8.70;63.20
75931;DHT22;64609;47.052;15.462;2024-03-08T06:55:21;8.70;63.30
75931;DHT22;64609;47.052;15.462;2024-03-08T06:57:46;8.80;63.30
75931;DHT22;64609;47.052;15.462;2024-03-08T07:00:12;8.90;62.90
75931;DHT22;64609;47.052;15.462;2024-03-08T07:02:44;9.00;62.80
75931;DHT22;64609;47.052;15.462;2024-03-08T07:05:11;9.10;62.50
75931;DHT22;64609;47.052;15.462;2024-03-08T07:07:37;9.10;62.10
75931;DHT22;64609;47.052;15.462;2024-03-08T07:10:03;9.10;62.10
75931;DHT22;64609;47.052;15.462;2024-03-08T07:12:30;9.20;62.00
75931;DHT22;64609;47.052;15.462;2024-03-08T07:14:55;9.20;61.60
75931;DHT22;64609;47.052;15.462;2024-03-08T07:17:21;9.20;61.70
75931;DHT22;64609;47.052;15.462;2024-03-08T07:19:47;9.30;61.70
75931;DHT22;64609;47.052;15.462;2024-03-08T07:22:13;9.30;61.00
75931;DHT22;64609;47.052;15.462;2024-03-08T07:24:40;8.90;61.20
75931;DHT22;64609;47.052;15.462;2024-03-08T07:27:23;8.90;62.20
75931;DHT22;64609;47.052;15.462;2024-03-08T07:29:49;9.00;62.40
75931;DHT22;64609;47.052;15.462;2024-03-08T07:32:14;9.00;62.20
75931;DHT22;64609;47.052;15.462;2024-03-08T07:34:47;9.20;61.70
75931;DHT22;64609;47.052;15.462;2024-03-08T07:37:14;9.30;61.40
75931;DHT22;64609;47.052;15.462;2024-03-08T07:39:40;9.30;61.20
75931;DHT22;64609;47.052;15.462;2024-03-08T07:42:05;9.20;60.80
75931;DHT22;64609;47.052;15.462;2024-03-08T07:44:31;9.00;61.20
75931;DHT22;64609;47.052;15.462;2024-03-08T07:46:58;8.70;61.80
75931;DHT22;64609;47.052;15.462;2024-03-08T07:49:24;8.60;62.50
75931;DHT22;64609;47.052;15.462;2024-03-08T07:51:49;8.50;62.60
75931;DHT22;64609;47.052;15.462;2024-03-08T07:54:15;8.30;63.00
75931;DHT22;64609;47.052;15.462;2024-03-08T07:56:41;8.20;63.40
75931;DHT22;64609;47.052;15.462;2024-03-08T07:59:07;8.20;63.30
75931;DHT22;64609;47.052;15.462;2024-03-08T08:01:33;8.20;63.50
75931;DHT22;64609;47.052;15.462;2024-03-08T08:03:59;8.10;63.70
75931;DHT22;64609;47.052;15.462;2024-03-08T08:06:27;8.20;63.80
75931;DHT22;64609;47.052;15.462;2024-03-08T08:08:52;8.30;63.90
75931;DHT22;64609;47.052;15.462;2024-03-08T08:11:19;8.40;63.90
75931;DHT22;64609;47.052;15.462;2024-03-08T08:13:45;8.50;63.60
75931;DHT22;64609;47.052;15.462;2024-03-08T08:16:11;8.50;63.40
75931;DHT22;64609;47.052;15.462;2024-03-08T08:18:38;8.60;63.40
75931;DHT22;64609;47.052;15.462;2024-03-08T08:21:05;8.70;63.40
75931;DHT22;64609;47.052;15.462;2024-03-08T08:23:35;8.60;63.30
75931;DHT22;64609;47.052;15.462;2024-03-08T08:26:00;8.70;63.50
75931;DHT22;64609;47.052;15.462;2024-03-08T08:28:28;8.70;63.60
75931;DHT22;64609;47.052;15.462;2024-03-08T08:30:54;8.80;63.30
75931;DHT22;64609;47.052;15.462;2024-03-08T08:33:19;8.80;63.20
75931;DHT22;64609;47.052;15.462;2024-03-08T08:35:45;9.00;62.80
75931;DHT22;64609;47.052;15.462;2024-03-08T08:38:13;9.00;62.40
75931;DHT22;64609;47.052;15.462;2024-03-08T08:40:38;9.10;62.20
75931;DHT22;64609;47.052;15.462;2024-03-08T08:43:04;9.10;61.70
75931;DHT22;64609;47.052;15.462;2024-03-08T08:45:30;9.10;61.90
75931;DHT22;64609;47.052;15.462;2024-03-08T08:47:56;9.20;61.90
75931;DHT22;64609;47.052;15.462;2024-03-08T08:50:23;9.20;61.70
75931;DHT22;64609;47.052;15.462;2024-03-08T08:52:49;9.10;61.50
75931;DHT22;64609;47.052;15.462;2024-03-08T08:55:14;9.10;61.80
75931;DHT22;64609;47.052;15.462;2024-03-08T08:57:43;9.20;61.90
75931;DHT22;64609;47.052;15.462;2024-03-08T09:00:10;9.30;61.40
75931;DHT22;64609;47.052;15.462;2024-03-08T09:02:41;9.40;61.40
75931;DHT22;64609;47.052;15.462;2024-03-08T09:05:07;9.50;61.50
75931;DHT22;64609;47.052;15.462;2024-03-08T09:07:37;9.60;61.20
75931;DHT22;64609;47.052;15.462;2024-03-08T09:10:03;9.60;60.80
75931;DHT22;64609;47.052;15.462;2024-03-08T09:12:29;9.60;61.00
75931;DHT22;64609;47.052;15.462;2024-03-08T09:14:54;9.70;60.80
75931;DHT22;64609;47.052;15.462;2024-03-08T09:17:20;9.70;60.40
75931;DHT22;64609;47.052;15.462;2024-03-08T09:19:49;9.70;60.20
75931;DHT22;64609;47.052;15.462;2024-03-08T09:22:15;9.70;59.70
75931;DHT22;64609;47.052;15.462;2024-03-08T09:24:41;9.70;59.70
75931;DHT22;64609;47.052;15.462;2024-03-08T09:27:08;9.80;59.80
75931;DHT22;64609;47.052;15.462;2024-03-08T09:29:35;10.00;59.80
75931;DHT22;64609;47.052;15.462;2024-03-08T09:32:01;10.10;59.60
75931;DHT22;64609;47.052;15.462;2024-03-08T09:34:27;10.20;58.90
75931;DHT22;64609;47.052;15.462;2024-03-08T09:36:52;10.20;58.20
75931;DHT22;64609;47.052;15.462;2024-03-08T09:39:18;10.30;58.60
75931;DHT22;64609;47.052;15.462;2024-03-08T09:41:46;10.30;58.00
75931;DHT22;64609;47.052;15.462;2024-03-08T09:44:16;10.40;57.80
75931;DHT22;64609;47.052;15.462;2024-03-08T09:46:42;10.50;57.80
75931;DHT22;64609;47.052;15.462;2024-03-08T09:49:08;10.70;57.40
75931;DHT22;64609;47.052;15.462;2024-03-08T09:51:34;10.80;56.00
75931;DHT22;64609;47.052;15.462;2024-03-08T09:54:05;10.70;55.90
75931;DHT22;64609;47.052;15.462;2024-03-08T09:56:34;10.90;56.10
75931;DHT22;64609;47.052;15.462;2024-03-08T09:59:00;10.90;55.90
75931;DHT22;64609;47.052;15.462;2024-03-08T10:01:38;11.00;55.50
75931;DHT22;64609;47.052;15.462;2024-03-08T10:04:04;11.00;55.40
75931;DHT22;64609;47.052;15.462;2024-03-08T10:06:30;11.00;55.20
75931;DHT22;64609;47.052;15.462;2024-03-08T10:08:57;11.00;54.30
75931;DHT22;64609;47.052;15.462;2024-03-08T10:11:24;11.00;54.10
75931;DHT22;64609;47.052;15.462;2024-03-08T10:13:49;11.10;54.00
75931;DHT22;64609;47.052;15.462;2024-03-08T10:16:16;11.30;53.80
75931;DHT22;64609;47.052;15.462;2024-03-08T10:18:42;11.30;52.90
75931;DHT22;64609;47.052;15.462;2024-03-08T10:21:11;11.40;53.10
75931;DHT22;64609;47.052;15.462;2024-03-08T10:23:39;11.60;52.60
75931;DHT22;64609;47.052;15.462;2024-03-08T10:26:12;11.90;51.80
75931;DHT22;64609;47.052;15.462;2024-03-08T10:28:50;12.30;49.90
75931;DHT22;64609;47.052;15.462;2024-03-08T10:31:17;12.80;49.30
75931;DHT22;64609;47.052;15.462;2024-03-08T10:33:43;12.90;46.90
75931;DHT22;64609;47.052;15.462;2024-03-08T10:36:10;12.60;45.00
75931;DHT22;64609;47.052;15.462;2024-03-08T10:38:41;12.50;46.20
75931;DHT22;64609;47.052;15.462;2024-03-08T10:41:08;12.30;45.40
75931;DHT22;64609;47.052;15.462;2024-03-08T10:44:20;12.10;47.00
75931;DHT22;64609;47.052;15.462;2024-03-08T10:47:07;12.00;47.70
75931;DHT22;64609;47.052;15.462;2024-03-08T10:49:39;12.00;47.10
75931;DHT22;64609;47.052;15.462;2024-03-08T10:52:11;11.90;48.00
75931;DHT22;64609;47.052;15.462;2024-03-08T10:54:38;12.00;48.40
75931;DHT22;64609;47.052;15.462;2024-03-08T10:57:05;12.00;47.90
75931;DHT22;64609;47.052;15.462;2024-03-08T10:59:34;12.20;48.60
75931;DHT22;64609;47.052;15.462;2024-03-08T11:02:00;12.60;48.10
75931;DHT22;64609;47.052;15.462;2024-03-08T11:04:26;13.00;46.80
75931;DHT22;64609;47.052;15.462;2024-03-08T11:07:03;13.20;45.30
75931;DHT22;64609;47.052;15.462;2024-03-08T11:09:36;13.30;45.20
75931;DHT22;64609;47.052;15.462;2024-03-08T11:14:50;13.70;42.60
75931;DHT22;64609;47.052;15.462;2024-03-08T11:17:39;13.80;43.10
75931;DHT22;64609;47.052;15.462;2024-03-08T11:20:12;13.90;41.90
75931;DHT22;64609;47.052;15.462;2024-03-08T11:22:48;13.90;42.30
75931;DHT22;64609;47.052;15.462;2024-03-08T11:25:38;13.20;40.90
75931;DHT22;64609;47.052;15.462;2024-03-08T11:28:17;12.90;43.30
75931;DHT22;64609;47.052;15.462;2024-03-08T11:31:22;12.90;43.50
75931;DHT22;64609;47.052;15.462;2024-03-08T11:33:35;13.00;43.80
75931;DHT22;64609;47.052;15.462;2024-03-08T11:38:43;12.60;43.20
75931;DHT22;64609;47.052;15.462;2024-03-08T11:41:10;12.50;44.10
75931;DHT22;64609;47.052;15.462;2024-03-08T11:43:40;12.60;44.40
75931;DHT22;64609;47.052;15.462;2024-03-08T11:46:17;12.50;43.90
75931;DHT22;64609;47.052;15.462;2024-03-08T11:48:46;12.80;43.80
75931;DHT22;64609;47.052;15.462;2024-03-08T11:51:14;13.00;42.80
75931;DHT22;64609;47.052;15.462;2024-03-08T11:53:40;13.30;43.50
75931;DHT22;64609;47.052;15.462;2024-03-08T11:56:13;13.40;43.00
75931;DHT22;64609;47.052;15.462;2024-03-08T11:58:40;13.70;43.10
75931;DHT22;64609;47.052;15.462;2024-03-08T12:01:10;13.80;41.60
75931;DHT22;64609;47.052;15.462;2024-03-08T12:03:41;13.90;42.00
75931;DHT22;64609;47.052;15.462;2024-03-08T12:06:10;14.10;42.10
75931;DHT22;64609;47.052;15.462;2024-03-08T12:08:36;14.00;41.80
75931;DHT22;64609;47.052;15.462;2024-03-08T12:11:05;13.70;41.70
75931;DHT22;64609;47.052;15.462;2024-03-08T12:13:32;13.60;42.60
75931;DHT22;64609;47.052;15.462;2024-03-08T12:16:00;13.50;42.10
75931;DHT22;64609;47.052;15.462;2024-03-08T12:18:29;13.50;42.50
75931;DHT22;64609;47.052;15.462;2024-03-08T12:21:08;13.60;42.90
75931;DHT22;64609;47.052;15.462;2024-03-08T12:23:34;13.80;43.40
75931;DHT22;64609;47.052;15.462;2024-03-08T12:26:17;13.70;42.10
75931;DHT22;64609;47.052;15.462;2024-03-08T12:28:45;13.60;42.90
75931;DHT22;64609;47.052;15.462;2024-03-08T12:31:17;13.70;42.70
75931;DHT22;64609;47.052;15.462;2024-03-08T12:33:55;13.50;42.30
75931;DHT22;64609;47.052;15.462;2024-03-08T12:36:24;13.30;43.00
75931;DHT22;64609;47.052;15.462;2024-03-08T12:38:51;13.00;43.20
75931;DHT22;64609;47.052;15.462;2024-03-08T12:41:20;13.00;43.80
75931;DHT22;64609;47.052;15.462;2024-03-08T12:43:47;12.70;44.10
75931;DHT22;64609;47.052;15.462;2024-03-08T12:46:21;12.50;45.20
75931;DHT22;64609;47.052;15.462;2024-03-08T12:48:47;13.00;45.70
75931;DHT22;64609;47.052;15.462;2024-03-08T12:51:14;13.30;44.60
75931;DHT22;64609;47.052;15.462;2024-03-08T12:53:41;13.40;44.00
75931;DHT22;64609;47.052;15.462;2024-03-08T12:56:09;13.60;44.00
75931;DHT22;64609;47.052;15.462;2024-03-08T12:58:36;13.70;43.60
75931;DHT22;64609;47.052;15.462;2024-03-08T13:01:02;13.50;43.10
75931;DHT22;64609;47.052;15.462;2024-03-08T13:03:30;13.20;44.10
75931;DHT22;64609;47.052;15.462;2024-03-08T13:05:57;13.20;44.40
75931;DHT22;64609;47.052;15.462;2024-03-08T13:08:22;12.90;44.00
75931;DHT22;64609;47.052;15.462;2024-03-08T13:10:50;12.80;44.80
75931;DHT22;64609;47.052;15.462;2024-03-08T13:13:16;12.80;44.60
75931;DHT22;64609;47.052;15.462;2024-03-08T13:15:42;12.70;44.60
75931;DHT22;64609;47.052;15.462;2024-03-08T13:18:08;12.60;44.30
75931;DHT22;64609;47.052;15.462;2024-03-08T13:20:35;12.30;45.20
75931;DHT22;64609;47.052;15.462;2024-03-08T13:23:04;12.30;45.50
75931;DHT22;64609;47.052;15.462;2024-03-08T13:25:31;12.30;45.40
75931;DHT22;64609;47.052;15.462;2024-03-08T13:27:57;12.30;45.70
75931;DHT22;64609;47.052;15.462;2024-03-08T13:30:24;12.20;45.50
75931;DHT22;64609;47.052;15.462;2024-03-08T13:32:55;12.20;46.10
75931;DHT22;64609;47.052;15.462;2024-03-08T13:35:20;12.20;45.60
75931;DHT22;64609;47.052;15.462;2024-03-08T13:37:55;12.20;45.80
75931;DHT22;64609;47.052;15.462;2024-03-08T13:40:21;12.20;46.40
75931;DHT22;64609;47.052;15.462;2024-03-08T13:42:47;12.20;46.10
75931;DHT22;64609;47.052;15.462;2024-03-08T13:45:14;12.20;46.60
75931;DHT22;64609;47.052;15.462;2024-03-08T13:47:43;12.30;46.70
75931;DHT22;64609;47.052;15.462;2024-03-08T13:50:10;12.30;46.60
75931;DHT22;64609;47.052;15.462;2024-03-08T13:52:43;12.30;45.90
75931;DHT22;64609;47.052;15.462;2024-03-08T13:55:10;12.20;46.10
75931;DHT22;64609;47.052;15.462;2024-03-08T13:57:35;12.20;46.20
75931;DHT22;64609;47.052;15.462;2024-03-08T14:00:02;12.10;46.40
75931;DHT22;64609;47.052;15.462;2024-03-08T14:02:28;12.00;46.50
75931;DHT22;64609;47.052;15.462;2024-03-08T14:04:56;11.90;46.90
75931;DHT22;64609;47.052;15.462;2024-03-08T14:07:22;11.60;47.40
75931;DHT22;64609;47.052;15.462;2024-03-08T14:09:49;11.60;47.90
75931;DHT22;64609;47.052;15.462;2024-03-08T14:12:14;11.70;47.90
75931;DHT22;64609;47.052;15.462;2024-03-08T14:14:41;11.70;47.90
75931;DHT22;64609;47.052;15.462;2024-03-08T14:17:10;11.50;47.70
75931;DHT22;64609;47.052;15.462;2024-03-08T14:19:36;11.50;48.20
75931;DHT22;64609;47.052;15.462;2024-03-08T14:22:04;11.40;48.40
75931;DHT22;64609;47.052;15.462;2024-03-08T14:24:30;11.50;49.00
75931;DHT22;64609;47.052;15.462;2024-03-08T14:26:56;11.60;48.70
75931;DHT22;64609;47.052;15.462;2024-03-08T14:29:25;11.60;48.60
75931;DHT22;64609;47.052;15.462;2024-03-08T14:31:55;11.60;49.00
75931;DHT22;64609;47.052;15.462;2024-03-08T14:34:23;11.50;48.80
75931;DHT22;64609;47.052;15.462;2024-03-08T14:36:52;11.40;48.90
75931;DHT22;64609;47.052;15.462;2024-03-08T14:39:17;11.40;49.20
75931;DHT22;64609;47.052;15.462;2024-03-08T14:41:49;11.50;49.10
75931;DHT22;64609;47.052;15.462;2024-03-08T14:44:19;11.70;49.30
75931;DHT22;64609;47.052;15.462;2024-03-08T14:46:44;11.80;49.10
75931;DHT22;64609;47.052;15.462;2024-03-08T14:49:11;11.90;48.50
75931;DHT22;64609;47.052;15.462;2024-03-08T14:51:37;11.80;48.80
75931;DHT22;64609;47.052;15.462;2024-03-08T14:54:03;11.80;48.90
75931;DHT22;64609;47.052;15.462;2024-03-08T14:56:32;11.70;48.80
75931;DHT22;64609;47.052;15.462;2024-03-08T14:58:58;11.60;48.70
75931;DHT22;64609;47.052;15.462;2024-03-08T15:01:25;11.50;49.10
75931;DHT22;64609;47.052;15.462;2024-03-08T15:03:54;11.60;49.30
75931;DHT22;64609;47.052;15.462;2024-03-08T15:06:21;11.60;49.00
75931;DHT22;64609;47.052;15.462;2024-03-08T15:08:47;11.50;49.10
75931;DHT22;64609;47.052;15.462;2024-03-08T15:11:13;11.50;49.40
75931;DHT22;64609;47.052;15.462;2024-03-08T15:13:49;11.60;49.40
75931;DHT22;64609;47.052;15.462;2024-03-08T15:16:18;11.50;48.70
75931;DHT22;64609;47.052;15.462;2024-03-08T15:18:46;11.40;49.00
75931;DHT22;64609;47.052;15.462;2024-03-08T15:21:17;11.40;49.30
75931;DHT22;64609;47.052;15.462;2024-03-08T15:23:44;11.50;49.70
75931;DHT22;64609;47.052;15.462;2024-03-08T15:26:15;11.50;49.40
75931;DHT22;64609;47.052;15.462;2024-03-08T15:28:42;11.50;49.50
75931;DHT22;64609;47.052;15.462;2024-03-08T15:31:10;11.40;49.20
75931;DHT22;64609;47.052;15.462;2024-03-08T15:33:37;11.20;49.80